sensor_id;sensor_type;location;lat;lon;timestamp;P1;durP1;ratioP1;P2;durP2;ratioP2
3299;SDS011;1662;49.310;8.134;2023-08-24T00:00:56;6.13;;;5.83;;
3299;SDS011;1662;49.310;8.134;2023-08-24T00:03:21;5.97;;;5.77;;
3299;SDS011;1662;49.310;8.134;2023-08-24T00:05:49;6.80;;;6.30;;
3299;SDS011;1662;49.310;8.134;2023-08-24T00:08:16;6.10;;;5.80;;
3299;SDS011;1662;49.310;8.134;2023-08-24T00:10:43;5.80;;;5.43;;
3299;SDS011;1662;49.310;8.134;2023-08-24T00:13:12;6.40;;;6.07;;
3299;SDS011;1662;49.310;8.134;2023-08-24T00:15:39;6.73;;;6.33;;
3299;SDS011;1662;49.310;8.134;2023-08-24T00:18:05;8.03;;;6.23;;
3299;SDS011;1662;49.310;8.134;2023-08-24T00:20:31;6.73;;;6.30;;
3299;SDS011;1662;49.310;8.134;2023-08-24T00:22:58;6.70;;;6.30;;
3299;SDS011;1662;49.310;8.134;2023-08-24T00:25:24;6.63;;;6.30;;
3299;SDS011;1662;49.310;8.134;2023-08-24T00:27:50;7.17;;;6.87;;
3299;SDS011;1662;49.310;8.134;2023-08-24T00:30:19;7.00;;;6.60;;
3299;SDS011;1662;49.310;8.134;2023-08-24T00:32:45;7.13;;;6.57;;
3299;SDS011;1662;49.310;8.134;2023-08-24T00:35:11;6.13;;;5.83;;
3299;SDS011;1662;49.310;8.134;2023-08-24T00:37:37;6.43;;;6.13;;
3299;SDS011;1662;49.310;8.134;2023-08-24T00:40:04;6.10;;;5.70;;
3299;SDS011;1662;49.310;8.134;2023-08-24T00:42:37;7.40;;;6.87;;
3299;SDS011;1662;49.310;8.134;2023-08-24T00:45:04;6.03;;;5.77;;
3299;SDS011;1662;49.310;8.134;2023-08-24T00:47:31;6.90;;;6.40;;
3299;SDS011;1662;49.310;8.134;2023-08-24T00:49:57;6.97;;;6.53;;
3299;SDS011;1662;49.310;8.134;2023-08-24T00:52:24;6.23;;;6.03;;
3299;SDS011;1662;49.310;8.134;2023-08-24T00:54:50;7.10;;;6.70;;
3299;SDS011;1662;49.310;8.134;2023-08-24T00:57:17;6.30;;;6.00;;
3299;SDS011;1662;49.310;8.134;2023-08-24T00:59:42;5.80;;;5.60;;
3299;SDS011;1662;49.310;8.134;2023-08-24T01:02:08;7.73;;;6.93;;
3299;SDS011;1662;49.310;8.134;2023-08-24T01:04:34;6.60;;;6.20;;
3299;SDS011;1662;49.310;8.134;2023-08-24T01:06:59;6.57;;;6.07;;
3299;SDS011;1662;49.310;8.134;2023-08-24T01:09:25;7.67;;;7.07;;
3299;SDS011;1662;49.310;8.134;2023-08-24T01:15:09;6.53;;;6.13;;
3299;SDS011;1662;49.310;8.134;2023-08-24T01:17:37;6.63;;;6.23;;
3299;SDS011;1662;49.310;8.134;2023-08-24T01:20:07;7.33;;;6.73;;
3299;SDS011;1662;49.310;8.134;2023-08-24T01:25:14;6.27;;;5.97;;
3299;SDS011;1662;49.310;8.134;2023-08-24T01:27:42;6.33;;;6.00;;
3299;SDS011;1662;49.310;8.134;2023-08-24T01:30:08;6.60;;;6.07;;
3299;SDS011;1662;49.310;8.134;2023-08-24T01:32:35;5.97;;;5.70;;
3299;SDS011;1662;49.310;8.134;2023-08-24T01:35:02;6.90;;;6.37;;
3299;SDS011;1662;49.310;8.134;2023-08-24T01:37:32;6.60;;;6.07;;
3299;SDS011;1662;49.310;8.134;2023-08-24T01:42:49;6.37;;;6.13;;
3299;SDS011;1662;49.310;8.134;2023-08-24T01:45:29;7.10;;;6.60;;
3299;SDS011;1662;49.310;8.134;2023-08-24T01:47:59;6.30;;;5.90;;
3299;SDS011;1662;49.310;8.134;2023-08-24T01:50:28;7.13;;;6.50;;
3299;SDS011;1662;49.310;8.134;2023-08-24T01:52:54;6.60;;;6.30;;
3299;SDS011;1662;49.310;8.134;2023-08-24T01:55:20;6.93;;;6.53;;
3299;SDS011;1662;49.310;8.134;2023-08-24T01:57:47;6.03;;;5.73;;
3299;SDS011;1662;49.310;8.134;2023-08-24T02:00:13;6.77;;;6.37;;
3299;SDS011;1662;49.310;8.134;2023-08-24T02:02:39;7.03;;;6.60;;
3299;SDS011;1662;49.310;8.134;2023-08-24T02:05:05;6.40;;;6.10;;
3299;SDS011;1662;49.310;8.134;2023-08-24T02:07:31;6.93;;;6.30;;
3299;SDS011;1662;49.310;8.134;2023-08-24T02:09:56;6.43;;;5.93;;
3299;SDS011;1662;49.310;8.134;2023-08-24T02:12:22;6.37;;;6.07;;
3299;SDS011;1662;49.310;8.134;2023-08-24T02:14:49;6.40;;;6.00;;
3299;SDS011;1662;49.310;8.134;2023-08-24T02:17:15;6.30;;;5.90;;
3299;SDS011;1662;49.310;8.134;2023-08-24T02:19:41;6.40;;;5.90;;
3299;SDS011;1662;49.310;8.134;2023-08-24T02:22:06;6.93;;;6.20;;
3299;SDS011;1662;49.310;8.134;2023-08-24T02:24:33;6.20;;;5.80;;
3299;SDS011;1662;49.310;8.134;2023-08-24T02:26:58;7.37;;;6.87;;
3299;SDS011;1662;49.310;8.134;2023-08-24T02:29:24;7.23;;;6.70;;
3299;SDS011;1662;49.310;8.134;2023-08-24T02:31:50;6.50;;;6.20;;
3299;SDS011;1662;49.310;8.134;2023-08-24T02:34:16;6.93;;;6.40;;
3299;SDS011;1662;49.310;8.134;2023-08-24T02:36:44;7.13;;;6.63;;
3299;SDS011;1662;49.310;8.134;2023-08-24T02:39:13;6.50;;;6.10;;
3299;SDS011;1662;49.310;8.134;2023-08-24T02:41:38;6.87;;;6.50;;
3299;SDS011;1662;49.310;8.134;2023-08-24T02:44:04;7.57;;;6.93;;
3299;SDS011;1662;49.310;8.134;2023-08-24T02:46:29;7.27;;;6.87;;
3299;SDS011;1662;49.310;8.134;2023-08-24T02:48:55;6.53;;;6.07;;
3299;SDS011;1662;49.310;8.134;2023-08-24T02:51:21;8.57;;;7.20;;
3299;SDS011;1662;49.310;8.134;2023-08-24T02:53:47;6.67;;;6.37;;
3299;SDS011;1662;49.310;8.134;2023-08-24T02:56:14;6.80;;;6.40;;
3299;SDS011;1662;49.310;8.134;2023-08-24T02:58:39;6.87;;;6.27;;
3299;SDS011;1662;49.310;8.134;2023-08-24T03:01:05;9.47;;;6.90;;
3299;SDS011;1662;49.310;8.134;2023-08-24T03:03:35;7.03;;;6.63;;
3299;SDS011;1662;49.310;8.134;2023-08-24T03:06:02;7.07;;;6.57;;
3299;SDS011;1662;49.310;8.134;2023-08-24T03:08:33;11.03;;;6.40;;
3299;SDS011;1662;49.310;8.134;2023-08-24T03:10:59;7.43;;;6.70;;
3299;SDS011;1662;49.310;8.134;2023-08-24T03:13:26;6.60;;;6.20;;
3299;SDS011;1662;49.310;8.134;2023-08-24T03:15:52;6.27;;;5.70;;
3299;SDS011;1662;49.310;8.134;2023-08-24T03:18:18;7.13;;;6.73;;
3299;SDS011;1662;49.310;8.134;2023-08-24T03:20:46;6.83;;;6.40;;
3299;SDS011;1662;49.310;8.134;2023-08-24T03:23:14;6.73;;;6.23;;
3299;SDS011;1662;49.310;8.134;2023-08-24T03:25:40;6.40;;;6.00;;
3299;SDS011;1662;49.310;8.134;2023-08-24T03:28:07;6.97;;;6.57;;
3299;SDS011;1662;49.310;8.134;2023-08-24T03:30:34;6.93;;;6.33;;
3299;SDS011;1662;49.310;8.134;2023-08-24T03:33:00;6.50;;;6.17;;
3299;SDS011;1662;49.310;8.134;2023-08-24T03:35:28;6.50;;;6.10;;
3299;SDS011;1662;49.310;8.134;2023-08-24T03:37:57;7.00;;;6.60;;
3299;SDS011;1662;49.310;8.134;2023-08-24T03:40:23;7.27;;;6.77;;
3299;SDS011;1662;49.310;8.134;2023-08-24T03:42:49;6.40;;;6.00;;
3299;SDS011;1662;49.310;8.134;2023-08-24T03:45:18;6.60;;;6.20;;
3299;SDS011;1662;49.310;8.134;2023-08-24T03:47:44;6.87;;;6.47;;
3299;SDS011;1662;49.310;8.134;2023-08-24T03:50:12;7.20;;;6.60;;
3299;SDS011;1662;49.310;8.134;2023-08-24T03:52:37;8.43;;;6.60;;
3299;SDS011;1662;49.310;8.134;2023-08-24T03:55:04;7.50;;;6.90;;
3299;SDS011;1662;49.310;8.134;2023-08-24T03:57:31;6.60;;;6.20;;
3299;SDS011;1662;49.310;8.134;2023-08-24T03:59:57;8.03;;;7.43;;
3299;SDS011;1662;49.310;8.134;2023-08-24T04:02:22;6.50;;;6.20;;
3299;SDS011;1662;49.310;8.134;2023-08-24T04:04:48;7.43;;;6.93;;
3299;SDS011;1662;49.310;8.134;2023-08-24T04:07:15;8.17;;;6.80;;
3299;SDS011;1662;49.310;8.134;2023-08-24T04:09:41;6.60;;;6.30;;
3299;SDS011;1662;49.310;8.134;2023-08-24T04:12:06;7.83;;;7.33;;
3299;SDS011;1662;49.310;8.134;2023-08-24T04:14:32;6.83;;;6.43;;
3299;SDS011;1662;49.310;8.134;2023-08-24T04:16:58;7.27;;;6.70;;
3299;SDS011;1662;49.310;8.134;2023-08-24T04:19:24;7.77;;;7.10;;
3299;SDS011;1662;49.310;8.134;2023-08-24T04:21:49;7.50;;;7.00;;
3299;SDS011;1662;49.310;8.134;2023-08-24T04:24:15;7.43;;;6.93;;
3299;SDS011;1662;49.310;8.134;2023-08-24T04:26:40;6.73;;;6.33;;
3299;SDS011;1662;49.310;8.134;2023-08-24T04:29:06;7.20;;;6.70;;
3299;SDS011;1662;49.310;8.134;2023-08-24T04:31:32;6.47;;;6.17;;
3299;SDS011;1662;49.310;8.134;2023-08-24T04:33:57;7.80;;;7.30;;
3299;SDS011;1662;49.310;8.134;2023-08-24T04:36:23;11.10;;;6.80;;
3299;SDS011;1662;49.310;8.134;2023-08-24T04:38:50;7.33;;;6.73;;
3299;SDS011;1662;49.310;8.134;2023-08-24T04:41:16;6.70;;;6.10;;
3299;SDS011;1662;49.310;8.134;2023-08-24T04:44:00;7.00;;;6.60;;
3299;SDS011;1662;49.310;8.134;2023-08-24T04:46:26;7.30;;;6.00;;
3299;SDS011;1662;49.310;8.134;2023-08-24T04:48:51;6.43;;;6.07;;
3299;SDS011;1662;49.310;8.134;2023-08-24T04:51:17;7.57;;;5.93;;
3299;SDS011;1662;49.310;8.134;2023-08-24T04:53:43;7.03;;;6.37;;
3299;SDS011;1662;49.310;8.134;2023-08-24T04:56:08;7.77;;;7.07;;
3299;SDS011;1662;49.310;8.134;2023-08-24T04:58:34;6.50;;;6.10;;
3299;SDS011;1662;49.310;8.134;2023-08-24T05:01:00;7.37;;;6.83;;
3299;SDS011;1662;49.310;8.134;2023-08-24T05:03:25;7.03;;;6.43;;
3299;SDS011;1662;49.310;8.134;2023-08-24T05:05:51;7.90;;;7.20;;
3299;SDS011;1662;49.310;8.134;2023-08-24T05:08:17;8.70;;;7.30;;
3299;SDS011;1662;49.310;8.134;2023-08-24T05:10:43;7.70;;;7.10;;
3299;SDS011;1662;49.310;8.134;2023-08-24T05:13:09;7.67;;;7.07;;
3299;SDS011;1662;49.310;8.134;2023-08-24T05:15:34;8.47;;;7.70;;
3299;SDS011;1662;49.310;8.134;2023-08-24T05:18:00;7.67;;;6.87;;
3299;SDS011;1662;49.310;8.134;2023-08-24T05:20:26;8.10;;;7.37;;
3299;SDS011;1662;49.310;8.134;2023-08-24T05:22:52;8.90;;;6.70;;
3299;SDS011;1662;49.310;8.134;2023-08-24T05:25:19;6.97;;;6.47;;
3299;SDS011;1662;49.310;8.134;2023-08-24T05:27:45;7.30;;;6.60;;
3299;SDS011;1662;49.310;8.134;2023-08-24T05:30:11;6.40;;;6.00;;
3299;SDS011;1662;49.310;8.134;2023-08-24T05:32:37;7.50;;;6.90;;
3299;SDS011;1662;49.310;8.134;2023-08-24T05:35:04;5.90;;;5.60;;
3299;SDS011;1662;49.310;8.134;2023-08-24T05:37:30;6.70;;;6.20;;
3299;SDS011;1662;49.310;8.134;2023-08-24T05:40:01;6.63;;;6.03;;
3299;SDS011;1662;49.310;8.134;2023-08-24T05:42:27;7.40;;;6.80;;
3299;SDS011;1662;49.310;8.134;2023-08-24T05:44:53;8.07;;;6.40;;
3299;SDS011;1662;49.310;8.134;2023-08-24T05:47:19;6.83;;;6.00;;
3299;SDS011;1662;49.310;8.134;2023-08-24T05:49:44;6.00;;;5.60;;
3299;SDS011;1662;49.310;8.134;2023-08-24T05:52:10;5.70;;;5.40;;
3299;SDS011;1662;49.310;8.134;2023-08-24T05:54:37;9.10;;;5.60;;
3299;SDS011;1662;49.310;8.134;2023-08-24T05:57:03;5.37;;;4.97;;
3299;SDS011;1662;49.310;8.134;2023-08-24T05:59:29;16.33;;;6.30;;
3299;SDS011;1662;49.310;8.134;2023-08-24T06:01:55;19.10;;;6.50;;
3299;SDS011;1662;49.310;8.134;2023-08-24T06:04:23;6.97;;;6.40;;
3299;SDS011;1662;49.310;8.134;2023-08-24T06:06:48;8.93;;;6.00;;
3299;SDS011;1662;49.310;8.134;2023-08-24T06:09:14;5.17;;;4.87;;
3299;SDS011;1662;49.310;8.134;2023-08-24T06:11:42;6.20;;;5.60;;
3299;SDS011;1662;49.310;8.134;2023-08-24T06:14:10;8.77;;;5.47;;
3299;SDS011;1662;49.310;8.134;2023-08-24T06:16:36;6.97;;;6.20;;
3299;SDS011;1662;49.310;8.134;2023-08-24T06:19:01;17.33;;;6.07;;
3299;SDS011;1662;49.310;8.134;2023-08-24T06:21:28;11.53;;;5.93;;
3299;SDS011;1662;49.310;8.134;2023-08-24T06:23:54;6.00;;;5.40;;
3299;SDS011;1662;49.310;8.134;2023-08-24T06:26:19;8.30;;;5.90;;
3299;SDS011;1662;49.310;8.134;2023-08-24T06:28:47;25.27;;;7.33;;
3299;SDS011;1662;49.310;8.134;2023-08-24T06:31:13;7.87;;;6.37;;
3299;SDS011;1662;49.310;8.134;2023-08-24T06:33:39;8.90;;;6.57;;
3299;SDS011;1662;49.310;8.134;2023-08-24T06:36:05;7.07;;;5.80;;
3299;SDS011;1662;49.310;8.134;2023-08-24T06:38:32;7.97;;;5.43;;
3299;SDS011;1662;49.310;8.134;2023-08-24T06:40:58;56.67;;;11.47;;
3299;SDS011;1662;49.310;8.134;2023-08-24T06:43:25;18.83;;;6.37;;
3299;SDS011;1662;49.310;8.134;2023-08-24T06:45:51;33.53;;;8.83;;
3299;SDS011;1662;49.310;8.134;2023-08-24T06:48:17;21.67;;;9.03;;
3299;SDS011;1662;49.310;8.134;2023-08-24T06:50:43;25.27;;;8.23;;
3299;SDS011;1662;49.310;8.134;2023-08-24T06:53:11;17.30;;;6.90;;
3299;SDS011;1662;49.310;8.134;2023-08-24T06:55:37;10.70;;;6.93;;
3299;SDS011;1662;49.310;8.134;2023-08-24T06:58:02;16.93;;;8.30;;
3299;SDS011;1662;49.310;8.134;2023-08-24T07:00:31;18.90;;;7.97;;
3299;SDS011;1662;49.310;8.134;2023-08-24T07:02:58;17.60;;;7.27;;
3299;SDS011;1662;49.310;8.134;2023-08-24T07:05:24;102.80;;;16.83;;
3299;SDS011;1662;49.310;8.134;2023-08-24T07:07:50;10.50;;;7.83;;
3299;SDS011;1662;49.310;8.134;2023-08-24T07:10:16;9.93;;;7.40;;
3299;SDS011;1662;49.310;8.134;2023-08-24T07:12:45;8.63;;;7.27;;
3299;SDS011;1662;49.310;8.134;2023-08-24T07:15:11;24.60;;;8.10;;
3299;SDS011;1662;49.310;8.134;2023-08-24T07:17:37;15.27;;;6.87;;
3299;SDS011;1662;49.310;8.134;2023-08-24T07:20:03;10.73;;;8.50;;
3299;SDS011;1662;49.310;8.134;2023-08-24T07:22:41;27.87;;;10.23;;
3299;SDS011;1662;49.310;8.134;2023-08-24T07:25:11;14.70;;;8.13;;
3299;SDS011;1662;49.310;8.134;2023-08-24T07:27:37;9.47;;;8.30;;
3299;SDS011;1662;49.310;8.134;2023-08-24T07:30:03;8.70;;;7.10;;
3299;SDS011;1662;49.310;8.134;2023-08-24T07:32:32;8.97;;;7.03;;
3299;SDS011;1662;49.310;8.134;2023-08-24T07:34:58;8.80;;;8.00;;
3299;SDS011;1662;49.310;8.134;2023-08-24T07:37:24;65.43;;;13.80;;
3299;SDS011;1662;49.310;8.134;2023-08-24T07:39:53;16.83;;;8.20;;
3299;SDS011;1662;49.310;8.134;2023-08-24T07:42:21;9.40;;;7.37;;
3299;SDS011;1662;49.310;8.134;2023-08-24T07:44:47;18.20;;;8.20;;
3299;SDS011;1662;49.310;8.134;2023-08-24T07:47:14;18.97;;;8.80;;
3299;SDS011;1662;49.310;8.134;2023-08-24T07:49:39;11.20;;;8.33;;
3299;SDS011;1662;49.310;8.134;2023-08-24T07:52:09;21.73;;;8.67;;
3299;SDS011;1662;49.310;8.134;2023-08-24T07:54:38;13.93;;;8.27;;
3299;SDS011;1662;49.310;8.134;2023-08-24T07:57:04;8.70;;;7.40;;
3299;SDS011;1662;49.310;8.134;2023-08-24T07:59:30;17.83;;;8.27;;
3299;SDS011;1662;49.310;8.134;2023-08-24T08:01:56;19.50;;;7.90;;
3299;SDS011;1662;49.310;8.134;2023-08-24T08:04:21;19.07;;;7.90;;
3299;SDS011;1662;49.310;8.134;2023-08-24T08:06:47;15.03;;;7.90;;
3299;SDS011;1662;49.310;8.134;2023-08-24T08:09:13;14.47;;;7.93;;
3299;SDS011;1662;49.310;8.134;2023-08-24T08:11:38;9.20;;;7.20;;
3299;SDS011;1662;49.310;8.134;2023-08-24T08:14:04;44.47;;;11.20;;
3299;SDS011;1662;49.310;8.134;2023-08-24T08:16:30;9.90;;;7.00;;
3299;SDS011;1662;49.310;8.134;2023-08-24T08:18:55;11.40;;;8.20;;
3299;SDS011;1662;49.310;8.134;2023-08-24T08:21:21;7.77;;;7.00;;
3299;SDS011;1662;49.310;8.134;2023-08-24T08:23:48;11.13;;;7.50;;
3299;SDS011;1662;49.310;8.134;2023-08-24T08:26:16;6.90;;;6.30;;
3299;SDS011;1662;49.310;8.134;2023-08-24T08:28:42;18.67;;;7.83;;
3299;SDS011;1662;49.310;8.134;2023-08-24T08:31:07;7.07;;;6.43;;
3299;SDS011;1662;49.310;8.134;2023-08-24T08:33:33;6.87;;;6.20;;
3299;SDS011;1662;49.310;8.134;2023-08-24T08:35:59;11.40;;;7.80;;
3299;SDS011;1662;49.310;8.134;2023-08-24T08:38:25;14.67;;;8.10;;
3299;SDS011;1662;49.310;8.134;2023-08-24T08:44:15;6.37;;;5.97;;
3299;SDS011;1662;49.310;8.134;2023-08-24T08:46:42;7.37;;;6.77;;
3299;SDS011;1662;49.310;8.134;2023-08-24T08:49:12;6.77;;;6.37;;
3299;SDS011;1662;49.310;8.134;2023-08-24T08:51:41;6.73;;;6.03;;
3299;SDS011;1662;49.310;8.134;2023-08-24T08:54:08;6.67;;;6.07;;
3299;SDS011;1662;49.310;8.134;2023-08-24T08:56:34;8.27;;;7.13;;
3299;SDS011;1662;49.310;8.134;2023-08-24T08:59:00;14.33;;;7.10;;
3299;SDS011;1662;49.310;8.134;2023-08-24T09:01:28;8.33;;;6.70;;
3299;SDS011;1662;49.310;8.134;2023-08-24T09:03:55;6.10;;;5.80;;
3299;SDS011;1662;49.310;8.134;2023-08-24T09:06:22;7.43;;;6.63;;
3299;SDS011;1662;49.310;8.134;2023-08-24T09:08:49;6.90;;;6.50;;
3299;SDS011;1662;49.310;8.134;2023-08-24T09:11:16;7.50;;;6.97;;
3299;SDS011;1662;49.310;8.134;2023-08-24T09:13:44;7.00;;;6.60;;
3299;SDS011;1662;49.310;8.134;2023-08-24T09:16:10;6.80;;;6.20;;
3299;SDS011;1662;49.310;8.134;2023-08-24T09:18:41;7.70;;;7.20;;
3299;SDS011;1662;49.310;8.134;2023-08-24T09:21:09;65.30;;;12.83;;
3299;SDS011;1662;49.310;8.134;2023-08-24T09:23:35;6.17;;;5.90;;
3299;SDS011;1662;49.310;8.134;2023-08-24T09:26:01;52.07;;;10.83;;
3299;SDS011;1662;49.310;8.134;2023-08-24T09:28:26;6.97;;;6.40;;
3299;SDS011;1662;49.310;8.134;2023-08-24T09:30:55;24.03;;;9.60;;
3299;SDS011;1662;49.310;8.134;2023-08-24T09:33:21;7.50;;;6.80;;
3299;SDS011;1662;49.310;8.134;2023-08-24T09:35:53;7.93;;;7.27;;
3299;SDS011;1662;49.310;8.134;2023-08-24T09:38:23;8.03;;;7.43;;
3299;SDS011;1662;49.310;8.134;2023-08-24T09:40:55;7.53;;;6.70;;
3299;SDS011;1662;49.310;8.134;2023-08-24T09:43:21;7.17;;;6.63;;
3299;SDS011;1662;49.310;8.134;2023-08-24T09:45:48;9.17;;;7.30;;
3299;SDS011;1662;49.310;8.134;2023-08-24T09:48:17;8.00;;;6.90;;
3299;SDS011;1662;49.310;8.134;2023-08-24T09:50:46;6.37;;;5.87;;
3299;SDS011;1662;49.310;8.134;2023-08-24T09:53:16;7.93;;;7.30;;
3299;SDS011;1662;49.310;8.134;2023-08-24T09:55:53;8.17;;;7.37;;
3299;SDS011;1662;49.310;8.134;2023-08-24T09:58:21;7.20;;;6.60;;
3299;SDS011;1662;49.310;8.134;2023-08-24T10:00:47;7.80;;;7.23;;
3299;SDS011;1662;49.310;8.134;2023-08-24T10:03:20;7.57;;;6.93;;
3299;SDS011;1662;49.310;8.134;2023-08-24T10:05:56;7.50;;;7.00;;
3299;SDS011;1662;49.310;8.134;2023-08-24T10:09:01;6.87;;;6.43;;
3299;SDS011;1662;49.310;8.134;2023-08-24T10:11:19;8.57;;;7.67;;
3299;SDS011;1662;49.310;8.134;2023-08-24T10:14:07;7.07;;;6.67;;
3299;SDS011;1662;49.310;8.134;2023-08-24T10:16:38;7.60;;;6.97;;
3299;SDS011;1662;49.310;8.134;2023-08-24T10:19:06;8.73;;;8.00;;
3299;SDS011;1662;49.310;8.134;2023-08-24T10:21:32;8.77;;;8.37;;
3299;SDS011;1662;49.310;8.134;2023-08-24T10:23:58;7.70;;;7.30;;
3299;SDS011;1662;49.310;8.134;2023-08-24T10:26:27;7.60;;;7.00;;
3299;SDS011;1662;49.310;8.134;2023-08-24T10:28:53;14.27;;;8.20;;
3299;SDS011;1662;49.310;8.134;2023-08-24T10:31:19;70.57;;;16.80;;
3299;SDS011;1662;49.310;8.134;2023-08-24T10:33:45;21.17;;;8.53;;
3299;SDS011;1662;49.310;8.134;2023-08-24T10:36:12;9.57;;;8.90;;
3299;SDS011;1662;49.310;8.134;2023-08-24T10:38:42;8.33;;;7.63;;
3299;SDS011;1662;49.310;8.134;2023-08-24T10:41:10;9.87;;;9.00;;
3299;SDS011;1662;49.310;8.134;2023-08-24T10:43:40;10.13;;;9.43;;
3299;SDS011;1662;49.310;8.134;2023-08-24T10:46:13;8.10;;;7.50;;
3299;SDS011;1662;49.310;8.134;2023-08-24T10:51:16;10.53;;;9.60;;
3299;SDS011;1662;49.310;8.134;2023-08-24T10:56:13;86.33;;;16.23;;
3299;SDS011;1662;49.310;8.134;2023-08-24T10:58:40;76.63;;;17.97;;
3299;SDS011;1662;49.310;8.134;2023-08-24T11:01:06;144.93;;;24.63;;
3299;SDS011;1662;49.310;8.134;2023-08-24T11:03:38;18.33;;;10.40;;
3299;SDS011;1662;49.310;8.134;2023-08-24T11:06:17;10.10;;;9.30;;
3299;SDS011;1662;49.310;8.134;2023-08-24T11:08:46;9.00;;;8.30;;
3299;SDS011;1662;49.310;8.134;2023-08-24T11:11:22;9.40;;;8.90;;
3299;SDS011;1662;49.310;8.134;2023-08-24T11:16:56;9.03;;;8.47;;
3299;SDS011;1662;49.310;8.134;2023-08-24T11:19:24;10.40;;;9.80;;
3299;SDS011;1662;49.310;8.134;2023-08-24T11:21:50;9.37;;;8.30;;
3299;SDS011;1662;49.310;8.134;2023-08-24T11:24:16;8.77;;;8.07;;
3299;SDS011;1662;49.310;8.134;2023-08-24T11:26:43;30.83;;;12.97;;
3299;SDS011;1662;49.310;8.134;2023-08-24T11:29:10;36.70;;;11.90;;
3299;SDS011;1662;49.310;8.134;2023-08-24T11:31:37;47.10;;;13.03;;
3299;SDS011;1662;49.310;8.134;2023-08-24T11:34:03;15.73;;;10.83;;
3299;SDS011;1662;49.310;8.134;2023-08-24T11:36:30;9.80;;;9.10;;
3299;SDS011;1662;49.310;8.134;2023-08-24T11:38:59;9.70;;;9.10;;
3299;SDS011;1662;49.310;8.134;2023-08-24T11:41:25;8.73;;;8.23;;
3299;SDS011;1662;49.310;8.134;2023-08-24T11:43:58;9.87;;;8.87;;
3299;SDS011;1662;49.310;8.134;2023-08-24T11:46:25;9.13;;;8.67;;
3299;SDS011;1662;49.310;8.134;2023-08-24T11:48:50;9.23;;;8.60;;
3299;SDS011;1662;49.310;8.134;2023-08-24T11:51:16;9.07;;;8.60;;
3299;SDS011;1662;49.310;8.134;2023-08-24T11:53:43;8.90;;;8.40;;
3299;SDS011;1662;49.310;8.134;2023-08-24T11:56:10;8.60;;;8.20;;
3299;SDS011;1662;49.310;8.134;2023-08-24T11:58:40;9.83;;;9.00;;
3299;SDS011;1662;49.310;8.134;2023-08-24T12:01:10;9.37;;;8.80;;
3299;SDS011;1662;49.310;8.134;2023-08-24T12:03:37;9.30;;;8.60;;
3299;SDS011;1662;49.310;8.134;2023-08-24T12:06:09;10.03;;;9.17;;
3299;SDS011;1662;49.310;8.134;2023-08-24T12:08:44;9.67;;;9.03;;
3299;SDS011;1662;49.310;8.134;2023-08-24T12:11:15;8.97;;;8.57;;
3299;SDS011;1662;49.310;8.134;2023-08-24T12:13:48;8.80;;;8.20;;
3299;SDS011;1662;49.310;8.134;2023-08-24T12:16:16;8.03;;;7.43;;
3299;SDS011;1662;49.310;8.134;2023-08-24T12:18:46;8.80;;;8.07;;
3299;SDS011;1662;49.310;8.134;2023-08-24T12:21:22;8.43;;;7.93;;
3299;SDS011;1662;49.310;8.134;2023-08-24T12:24:22;9.80;;;9.00;;
3299;SDS011;1662;49.310;8.134;2023-08-24T12:26:40;9.30;;;8.70;;
3299;SDS011;1662;49.310;8.134;2023-08-24T12:29:07;9.30;;;8.73;;
3299;SDS011;1662;49.310;8.134;2023-08-24T12:31:34;9.90;;;9.10;;
3299;SDS011;1662;49.310;8.134;2023-08-24T12:34:04;10.80;;;9.67;;
3299;SDS011;1662;49.310;8.134;2023-08-24T12:36:35;8.53;;;8.10;;
3299;SDS011;1662;49.310;8.134;2023-08-24T12:39:02;9.23;;;8.53;;
3299;SDS011;1662;49.310;8.134;2023-08-24T12:41:30;16.47;;;9.87;;
3299;SDS011;1662;49.310;8.134;2023-08-24T12:43:56;17.23;;;10.63;;
3299;SDS011;1662;49.310;8.134;2023-08-24T12:46:22;10.80;;;9.73;;
3299;SDS011;1662;49.310;8.134;2023-08-24T12:48:48;12.83;;;8.93;;
3299;SDS011;1662;49.310;8.134;2023-08-24T12:51:15;10.80;;;10.23;;
3299;SDS011;1662;49.310;8.134;2023-08-24T12:53:41;9.30;;;8.90;;
3299;SDS011;1662;49.310;8.134;2023-08-24T12:56:07;11.53;;;10.63;;
3299;SDS011;1662;49.310;8.134;2023-08-24T12:58:33;9.93;;;9.43;;
3299;SDS011;1662;49.310;8.134;2023-08-24T13:00:59;14.43;;;10.97;;
3299;SDS011;1662;49.310;8.134;2023-08-24T13:03:25;11.50;;;10.40;;
3299;SDS011;1662;49.310;8.134;2023-08-24T13:05:53;10.50;;;9.60;;
3299;SDS011;1662;49.310;8.134;2023-08-24T13:08:18;59.47;;;14.97;;
3299;SDS011;1662;49.310;8.134;2023-08-24T13:10:44;9.50;;;8.70;;
3299;SDS011;1662;49.310;8.134;2023-08-24T13:13:09;10.97;;;10.13;;
3299;SDS011;1662;49.310;8.134;2023-08-24T13:15:35;10.93;;;10.33;;
3299;SDS011;1662;49.310;8.134;2023-08-24T13:18:01;10.20;;;9.33;;
3299;SDS011;1662;49.310;8.134;2023-08-24T13:20:26;10.30;;;9.30;;
3299;SDS011;1662;49.310;8.134;2023-08-24T13:22:54;12.23;;;10.07;;
3299;SDS011;1662;49.310;8.134;2023-08-24T13:25:20;10.93;;;10.13;;
3299;SDS011;1662;49.310;8.134;2023-08-24T13:27:45;9.77;;;8.87;;
3299;SDS011;1662;49.310;8.134;2023-08-24T13:30:11;8.90;;;8.37;;
3299;SDS011;1662;49.310;8.134;2023-08-24T13:32:40;10.50;;;9.53;;
3299;SDS011;1662;49.310;8.134;2023-08-24T13:35:06;15.93;;;10.60;;
3299;SDS011;1662;49.310;8.134;2023-08-24T13:37:31;13.77;;;9.53;;
3299;SDS011;1662;49.310;8.134;2023-08-24T13:39:58;14.10;;;9.73;;
3299;SDS011;1662;49.310;8.134;2023-08-24T13:42:24;60.70;;;12.27;;
3299;SDS011;1662;49.310;8.134;2023-08-24T13:44:50;35.53;;;10.97;;
3299;SDS011;1662;49.310;8.134;2023-08-24T13:47:15;9.10;;;8.43;;
3299;SDS011;1662;49.310;8.134;2023-08-24T13:49:41;10.23;;;9.40;;
3299;SDS011;1662;49.310;8.134;2023-08-24T13:52:07;9.70;;;8.80;;
3299;SDS011;1662;49.310;8.134;2023-08-24T13:54:33;9.27;;;8.70;;
3299;SDS011;1662;49.310;8.134;2023-08-24T13:56:59;10.40;;;9.60;;
3299;SDS011;1662;49.310;8.134;2023-08-24T13:59:26;9.90;;;9.10;;
3299;SDS011;1662;49.310;8.134;2023-08-24T14:01:51;9.17;;;8.43;;
3299;SDS011;1662;49.310;8.134;2023-08-24T14:04:17;8.93;;;8.53;;
3299;SDS011;1662;49.310;8.134;2023-08-24T14:06:43;10.07;;;9.30;;
3299;SDS011;1662;49.310;8.134;2023-08-24T14:09:08;11.20;;;10.03;;
3299;SDS011;1662;49.310;8.134;2023-08-24T14:11:34;10.90;;;9.80;;
3299;SDS011;1662;49.310;8.134;2023-08-24T14:13:59;10.60;;;9.60;;
3299;SDS011;1662;49.310;8.134;2023-08-24T14:16:25;11.20;;;10.20;;
3299;SDS011;1662;49.310;8.134;2023-08-24T14:18:51;10.60;;;9.53;;
3299;SDS011;1662;49.310;8.134;2023-08-24T14:21:17;10.13;;;9.43;;
3299;SDS011;1662;49.310;8.134;2023-08-24T14:23:44;10.43;;;9.63;;
3299;SDS011;1662;49.310;8.134;2023-08-24T14:26:12;9.60;;;9.00;;
3299;SDS011;1662;49.310;8.134;2023-08-24T14:28:50;11.63;;;10.43;;
3299;SDS011;1662;49.310;8.134;2023-08-24T14:31:22;10.23;;;8.50;;
3299;SDS011;1662;49.310;8.134;2023-08-24T14:33:48;9.67;;;9.07;;
3299;SDS011;1662;49.310;8.134;2023-08-24T14:36:15;8.33;;;7.83;;
3299;SDS011;1662;49.310;8.134;2023-08-24T14:38:41;8.60;;;7.77;;
3299;SDS011;1662;49.310;8.134;2023-08-24T14:41:10;10.13;;;9.17;;
3299;SDS011;1662;49.310;8.134;2023-08-24T14:43:37;9.13;;;8.40;;
3299;SDS011;1662;49.310;8.134;2023-08-24T14:46:03;10.47;;;9.27;;
3299;SDS011;1662;49.310;8.134;2023-08-24T14:48:31;9.80;;;9.00;;
3299;SDS011;1662;49.310;8.134;2023-08-24T14:51:04;9.67;;;8.77;;
3299;SDS011;1662;49.310;8.134;2023-08-24T14:53:30;8.93;;;8.17;;
3299;SDS011;1662;49.310;8.134;2023-08-24T14:55:56;9.50;;;8.70;;
3299;SDS011;1662;49.310;8.134;2023-08-24T14:58:25;8.57;;;8.03;;
3299;SDS011;1662;49.310;8.134;2023-08-24T15:00:52;12.43;;;8.63;;
3299;SDS011;1662;49.310;8.134;2023-08-24T15:03:20;8.33;;;7.83;;
3299;SDS011;1662;49.310;8.134;2023-08-24T15:05:51;10.10;;;9.20;;
3299;SDS011;1662;49.310;8.134;2023-08-24T15:08:34;8.77;;;8.17;;
3299;SDS011;1662;49.310;8.134;2023-08-24T15:11:00;9.30;;;8.60;;
3299;SDS011;1662;49.310;8.134;2023-08-24T15:13:27;8.60;;;8.00;;
3299;SDS011;1662;49.310;8.134;2023-08-24T15:15:56;6.63;;;6.10;;
3299;SDS011;1662;49.310;8.134;2023-08-24T15:18:23;8.33;;;7.67;;
3299;SDS011;1662;49.310;8.134;2023-08-24T15:20:49;8.17;;;7.53;;
3299;SDS011;1662;49.310;8.134;2023-08-24T15:25:52;8.83;;;8.13;;
3299;SDS011;1662;49.310;8.134;2023-08-24T15:28:21;6.73;;;6.23;;
3299;SDS011;1662;49.310;8.134;2023-08-24T15:30:47;7.90;;;7.20;;
3299;SDS011;1662;49.310;8.134;2023-08-24T15:33:14;8.23;;;7.73;;